createdAt,value
2018-05-07T00:02:08.655Z,2.60
2018-05-07T00:04:34.496Z,2.53
2018-05-07T00:07:00.353Z,2.50
2018-05-07T00:09:26.269Z,2.90
2018-05-07T00:11:52.112Z,2.20
2018-05-07T00:14:17.955Z,2.60
2018-05-07T00:16:43.770Z,2.40
2018-05-07T00:19:09.590Z,2.97
2018-05-07T00:21:35.472Z,3.20
2018-05-07T00:24:01.308Z,2.67
2018-05-07T00:26:27.164Z,3.13
2018-05-07T00:28:53.001Z,2.50
2018-05-07T00:31:18.852Z,2.10
2018-05-07T00:33:44.722Z,2.87
2018-05-07T00:36:10.577Z,3.40
2018-05-07T00:38:36.439Z,2.97
2018-05-07T00:41:02.296Z,2.83
2018-05-07T00:43:28.179Z,2.63
2018-05-07T00:45:54.019Z,3.03
2018-05-07T00:48:19.869Z,3.50
2018-05-07T00:50:45.734Z,2.80
2018-05-07T00:53:11.580Z,2.60
2018-05-07T00:55:37.404Z,3.60
2018-05-07T00:58:03.225Z,2.80
2018-05-07T01:00:29.081Z,2.93
2018-05-07T01:02:54.927Z,2.60
2018-05-07T01:05:20.776Z,3.23
2018-05-07T01:07:46.596Z,2.63
2018-05-07T01:10:12.478Z,2.90
2018-05-07T01:12:38.318Z,3.03
2018-05-07T01:15:04.161Z,2.60
2018-05-07T01:17:30.016Z,2.83
2018-05-07T01:19:55.876Z,2.80
2018-05-07T01:22:21.760Z,2.43
2018-05-07T01:24:47.633Z,2.30
2018-05-07T01:27:13.491Z,3.23
2018-05-07T01:29:39.349Z,3.00
2018-05-07T01:32:05.209Z,2.60
2018-05-07T01:34:31.056Z,2.87
2018-05-07T01:36:56.934Z,3.60
2018-05-07T01:39:22.773Z,3.90
2018-05-07T01:41:48.614Z,3.13
2018-05-07T01:44:14.468Z,2.50
2018-05-07T01:46:40.364Z,3.50
2018-05-07T01:49:06.200Z,2.97
2018-05-07T01:51:32.067Z,3.30
2018-05-07T01:53:57.947Z,3.03
2018-05-07T01:56:23.824Z,3.20
2018-05-07T01:58:49.684Z,3.70
2018-05-07T02:01:15.571Z,3.60
2018-05-07T02:03:41.433Z,3.20
2018-05-07T02:06:07.324Z,3.00
2018-05-07T02:08:33.180Z,2.90
2018-05-07T02:10:59.044Z,3.03
2018-05-07T02:13:24.897Z,3.00
2018-05-07T02:15:50.780Z,2.77
2018-05-07T02:18:16.656Z,2.93
2018-05-07T02:20:42.513Z,2.53
2018-05-07T02:23:08.356Z,3.20
2018-05-07T02:25:34.185Z,2.70
2018-05-07T02:28:00.056Z,3.10
2018-05-07T02:30:25.892Z,3.00
2018-05-07T02:32:51.779Z,3.43
2018-05-07T02:35:17.609Z,2.73
2018-05-07T02:37:43.461Z,3.47
2018-05-07T02:40:09.332Z,3.30
2018-05-07T02:42:35.180Z,3.00
2018-05-07T02:45:01.029Z,3.17
2018-05-07T02:47:26.881Z,2.87
2018-05-07T02:49:52.777Z,2.80
2018-05-07T02:52:18.610Z,3.10
2018-05-07T02:54:44.483Z,2.93
2018-05-07T02:57:10.343Z,3.20
2018-05-07T02:59:36.228Z,3.57
2018-05-07T03:02:02.105Z,4.87
2018-05-07T03:04:27.963Z,3.00
2018-05-07T03:06:53.871Z,3.70
2018-05-07T03:09:19.744Z,3.70
2018-05-07T03:11:45.602Z,3.73
2018-05-07T03:14:11.497Z,3.00
2018-05-07T03:16:37.377Z,3.90
2018-05-07T03:19:03.276Z,3.50
2018-05-07T03:21:29.150Z,4.03
2018-05-07T03:23:55.039Z,3.57
2018-05-07T03:26:20.937Z,3.80
2018-05-07T03:28:46.856Z,5.27
2018-05-07T03:31:13.419Z,5.10
2018-05-07T03:33:39.316Z,4.60
2018-05-07T03:36:05.162Z,5.70
2018-05-07T03:38:31.025Z,5.53
2018-05-07T03:40:56.883Z,6.10
2018-05-07T03:43:22.751Z,5.80
2018-05-07T03:45:48.608Z,7.00
2018-05-07T03:48:14.445Z,8.33
2018-05-07T03:50:40.301Z,5.67
2018-05-07T03:53:06.148Z,5.40
2018-05-07T03:55:32.021Z,6.90
2018-05-07T03:57:57.858Z,11.67
2018-05-07T04:00:23.705Z,10.47
2018-05-07T04:02:49.573Z,8.70
2018-05-07T04:05:15.443Z,13.13
2018-05-07T04:07:41.324Z,10.60
2018-05-07T04:10:07.230Z,10.93
2018-05-07T04:12:33.144Z,13.33
2018-05-07T04:15:05.902Z,11.80
2018-05-07T04:17:44.132Z,8.30
2018-05-07T04:20:22.376Z,7.80
2018-05-07T04:23:00.600Z,5.30
2018-05-07T04:25:26.464Z,6.90
2018-05-07T04:27:52.332Z,6.47
2018-05-07T04:30:18.176Z,6.93
2018-05-07T04:32:44.045Z,7.00
2018-05-07T04:35:09.920Z,6.10
2018-05-07T04:37:35.760Z,5.97
2018-05-07T04:40:01.641Z,5.03
2018-05-07T04:42:27.499Z,5.17
2018-05-07T04:44:53.337Z,4.50
2018-05-07T04:47:19.183Z,4.93
2018-05-07T04:49:45.038Z,4.10
2018-05-07T04:52:10.884Z,4.40
2018-05-07T04:54:36.694Z,4.20
2018-05-07T04:57:02.544Z,3.67
2018-05-07T04:59:28.512Z,4.80
2018-05-07T05:01:54.309Z,4.47
2018-05-07T05:04:20.204Z,3.80
2018-05-07T05:06:46.071Z,4.20
2018-05-07T05:09:11.909Z,4.50
2018-05-07T05:11:37.747Z,4.60
2018-05-07T05:14:03.617Z,4.13
2018-05-07T05:16:29.479Z,4.40
2018-05-07T05:18:55.341Z,4.00
2018-05-07T05:21:21.231Z,3.97
2018-05-07T05:23:47.131Z,3.63
2018-05-07T05:26:13.008Z,3.70
2018-05-07T05:28:38.862Z,3.90
2018-05-07T05:31:04.725Z,3.80
2018-05-07T05:33:30.610Z,4.37
2018-05-07T05:35:56.446Z,3.30
2018-05-07T05:38:22.303Z,3.80
2018-05-07T05:40:48.216Z,3.83
2018-05-07T05:43:14.062Z,3.53
2018-05-07T05:45:40.001Z,3.47
2018-05-07T05:48:05.881Z,3.40
2018-05-07T05:50:31.735Z,3.67
2018-05-07T05:52:57.613Z,3.57
2018-05-07T05:55:23.512Z,4.37
2018-05-07T05:57:49.496Z,3.30
2018-05-07T06:00:15.333Z,4.07
2018-05-07T06:02:41.184Z,4.10
2018-05-07T06:05:07.032Z,3.47
2018-05-07T06:07:32.883Z,4.20
2018-05-07T06:09:58.772Z,4.17
2018-05-07T06:12:24.633Z,3.17
2018-05-07T06:14:50.626Z,4.10
2018-05-07T06:17:16.340Z,2.90
2018-05-07T06:19:42.184Z,3.30
2018-05-07T06:22:08.055Z,2.90
2018-05-07T06:24:33.916Z,3.73
2018-05-07T06:26:59.761Z,4.27
2018-05-07T06:29:25.608Z,3.53
2018-05-07T06:31:51.462Z,3.60
2018-05-07T06:34:17.332Z,3.37
2018-05-07T06:36:43.164Z,3.67
2018-05-07T06:39:09.018Z,3.67
2018-05-07T06:41:34.896Z,4.10
2018-05-07T06:44:00.757Z,3.60
2018-05-07T06:46:26.591Z,3.23
2018-05-07T06:48:52.426Z,3.60
2018-05-07T06:51:18.294Z,3.50
2018-05-07T06:53:44.138Z,3.43
2018-05-07T06:56:10.047Z,3.10
2018-05-07T06:58:35.908Z,3.40
2018-05-07T07:01:01.783Z,3.33
2018-05-07T07:03:27.677Z,2.90
2018-05-07T07:05:53.517Z,3.10
2018-05-07T07:08:19.463Z,3.10
2018-05-07T07:10:45.284Z,3.30
2018-05-07T07:13:11.218Z,3.00
2018-05-07T07:15:37.087Z,3.10
2018-05-07T07:18:02.985Z,3.30
2018-05-07T07:20:28.875Z,3.67
2018-05-07T07:22:54.711Z,3.27
2018-05-07T07:25:20.565Z,2.70
2018-05-07T07:27:46.403Z,3.17
2018-05-07T07:30:12.237Z,3.37
2018-05-07T07:32:38.103Z,3.00
2018-05-07T07:35:04.207Z,2.67
2018-05-07T07:37:30.101Z,2.70
2018-05-07T07:39:55.985Z,2.23
2018-05-07T07:42:21.833Z,3.17
2018-05-07T07:44:47.684Z,3.00
2018-05-07T07:47:13.627Z,2.20
2018-05-07T07:49:39.379Z,3.00
2018-05-07T07:52:05.214Z,2.33
2018-05-07T07:54:31.092Z,2.80
2018-05-07T07:56:56.949Z,2.73
2018-05-07T07:59:22.813Z,2.23
2018-05-07T08:01:48.662Z,2.30
2018-05-07T08:04:14.601Z,2.47
2018-05-07T08:06:40.429Z,2.33
2018-05-07T08:09:06.329Z,2.47
2018-05-07T08:11:32.205Z,2.40
2018-05-07T08:13:58.074Z,2.50
2018-05-07T08:16:23.960Z,2.77
2018-05-07T08:18:49.810Z,2.40
2018-05-07T08:21:15.697Z,2.20
2018-05-07T08:23:41.537Z,2.43
2018-05-07T08:26:07.412Z,2.70
2018-05-07T08:28:33.247Z,2.70
2018-05-07T08:30:59.090Z,2.80
2018-05-07T08:33:24.954Z,3.30
2018-05-07T08:35:50.809Z,2.63
2018-05-07T08:38:16.674Z,2.57
2018-05-07T08:40:42.568Z,2.30
2018-05-07T08:43:08.447Z,2.93
2018-05-07T08:45:34.305Z,2.70
2018-05-07T08:48:00.174Z,2.77
2018-05-07T08:50:26.021Z,2.60
2018-05-07T08:52:51.996Z,3.37
2018-05-07T08:55:17.808Z,2.90
2018-05-07T08:57:43.677Z,2.30
2018-05-07T09:00:09.521Z,2.50
2018-05-07T09:02:35.371Z,2.47
2018-05-07T09:05:01.256Z,2.50
2018-05-07T09:07:27.096Z,2.30
2018-05-07T09:09:52.949Z,2.80
2018-05-07T09:12:18.837Z,3.20
2018-05-07T09:14:44.712Z,2.67
2018-05-07T09:17:10.598Z,2.50
2018-05-07T09:19:36.500Z,2.70
2018-05-07T09:22:02.386Z,2.40
2018-05-07T09:24:28.248Z,2.93
2018-05-07T09:26:54.133Z,2.03
2018-05-07T09:29:20.011Z,2.63
2018-05-07T09:31:45.896Z,3.10
2018-05-07T09:34:11.742Z,2.80
2018-05-07T09:36:37.649Z,2.63
2018-05-07T09:39:03.550Z,2.20
2018-05-07T09:41:29.389Z,2.23
2018-05-07T09:43:55.269Z,2.40
2018-05-07T09:46:21.145Z,2.40
2018-05-07T09:48:46.985Z,2.53
2018-05-07T09:51:12.829Z,2.13
2018-05-07T09:53:38.664Z,2.40
2018-05-07T09:56:04.536Z,2.20
2018-05-07T09:58:30.423Z,2.53
2018-05-07T10:00:57.268Z,2.80
2018-05-07T10:03:23.163Z,2.33
2018-05-07T10:05:49.021Z,2.43
2018-05-07T10:08:14.938Z,2.13
2018-05-07T10:10:40.802Z,3.03
2018-05-07T10:13:06.700Z,2.40
2018-05-07T10:15:32.622Z,2.20
2018-05-07T10:17:58.503Z,2.73
2018-05-07T10:20:24.437Z,2.63
2018-05-07T10:22:50.320Z,2.33
2018-05-07T10:25:16.286Z,2.10
2018-05-07T10:27:42.140Z,2.17
2018-05-07T10:30:08.050Z,2.30
2018-05-07T10:32:33.937Z,2.53
2018-05-07T10:34:59.799Z,2.80
2018-05-07T10:37:25.676Z,2.57
2018-05-07T10:39:51.555Z,2.00
2018-05-07T10:42:17.406Z,2.23
2018-05-07T10:44:43.218Z,2.67
2018-05-07T10:47:09.125Z,1.73
2018-05-07T10:49:34.966Z,2.53
2018-05-07T10:52:00.830Z,2.30
2018-05-07T10:54:26.672Z,2.30
2018-05-07T10:56:52.532Z,2.10
2018-05-07T10:59:18.369Z,2.60
2018-05-07T11:01:44.228Z,2.20
2018-05-07T11:04:10.131Z,2.33
2018-05-07T11:06:35.974Z,2.13
2018-05-07T11:09:01.849Z,2.20
2018-05-07T11:11:27.725Z,2.10
2018-05-07T11:13:53.604Z,2.00
2018-05-07T11:16:19.428Z,1.93
2018-05-07T11:18:45.297Z,2.30
2018-05-07T11:21:11.183Z,2.13
2018-05-07T11:23:37.018Z,2.03
2018-05-07T11:26:02.858Z,1.97
2018-05-07T11:28:28.718Z,1.77
2018-05-07T11:30:54.583Z,2.27
2018-05-07T11:33:20.419Z,2.00
2018-05-07T11:35:46.264Z,2.20
2018-05-07T11:38:12.105Z,2.30
2018-05-07T11:40:37.952Z,2.50
2018-05-07T11:43:03.798Z,1.80
2018-05-07T11:45:29.670Z,1.90
2018-05-07T11:47:55.518Z,1.80
2018-05-07T11:50:21.333Z,2.10
2018-05-07T11:52:47.187Z,1.70
2018-05-07T11:55:13.061Z,2.00
2018-05-07T11:57:38.900Z,1.90
2018-05-07T12:00:04.784Z,3.50
2018-05-07T12:02:30.695Z,1.60
2018-05-07T12:04:56.481Z,1.40
2018-05-07T12:07:22.323Z,1.60
2018-05-07T12:09:48.196Z,1.60
2018-05-07T12:12:14.124Z,1.80
2018-05-07T12:14:39.999Z,1.60
2018-05-07T12:17:05.860Z,1.80
2018-05-07T12:19:31.738Z,1.40
2018-05-07T12:21:57.600Z,2.20
2018-05-07T12:24:23.466Z,1.50
2018-05-07T12:26:49.296Z,1.83
2018-05-07T12:29:15.148Z,1.73
2018-05-07T12:31:41.149Z,2.10
2018-05-07T12:34:06.885Z,1.50
2018-05-07T12:36:32.725Z,1.70
2018-05-07T12:38:58.577Z,2.53
2018-05-07T12:41:24.453Z,1.50
2018-05-07T12:43:50.539Z,1.20
2018-05-07T12:46:16.393Z,1.50
2018-05-07T12:48:42.267Z,1.83
2018-05-07T12:51:08.121Z,1.63
2018-05-07T12:53:33.973Z,1.33
2018-05-07T12:55:59.826Z,1.67
2018-05-07T12:58:25.680Z,1.50
2018-05-07T13:00:51.525Z,1.77
2018-05-07T13:03:17.411Z,1.70
2018-05-07T13:05:43.297Z,1.50
2018-05-07T13:08:09.090Z,1.37
2018-05-07T13:10:34.968Z,1.73
2018-05-07T13:13:00.864Z,1.60
2018-05-07T13:15:26.638Z,1.60
2018-05-07T13:17:52.499Z,1.33
2018-05-07T13:20:18.332Z,1.90
2018-05-07T13:22:44.203Z,1.73
2018-05-07T13:25:10.055Z,1.63
2018-05-07T13:27:35.885Z,1.77
2018-05-07T13:30:01.714Z,1.73
2018-05-07T13:32:27.607Z,2.03
2018-05-07T13:34:53.537Z,1.60
2018-05-07T13:37:19.407Z,1.60
2018-05-07T13:39:45.248Z,1.90
2018-05-07T13:42:11.104Z,1.80
2018-05-07T13:44:36.961Z,2.13
2018-05-07T13:47:02.833Z,1.70
2018-05-07T13:49:28.705Z,2.00
2018-05-07T13:51:54.571Z,1.63
2018-05-07T13:54:20.450Z,1.60
2018-05-07T13:56:46.325Z,1.50
2018-05-07T13:59:12.231Z,1.60
2018-05-07T14:01:38.123Z,2.00
2018-05-07T14:04:03.986Z,2.60
2018-05-07T14:06:29.845Z,1.90
2018-05-07T14:08:55.708Z,1.60
2018-05-07T14:11:21.588Z,1.70
2018-05-07T14:13:47.492Z,1.40
2018-05-07T14:16:13.341Z,1.67
2018-05-07T14:18:39.220Z,1.80
2018-05-07T14:21:05.062Z,1.67
2018-05-07T14:23:30.915Z,2.10
2018-05-07T14:25:56.777Z,1.60
2018-05-07T14:28:22.597Z,1.80
2018-05-07T14:30:48.413Z,1.50
2018-05-07T14:33:14.300Z,1.60
2018-05-07T14:35:40.151Z,1.50
2018-05-07T14:38:06.031Z,1.50
2018-05-07T14:40:31.964Z,1.90
2018-05-07T14:42:57.798Z,2.03
2018-05-07T14:45:23.700Z,2.20
2018-05-07T14:47:49.537Z,1.77
2018-05-07T14:50:15.400Z,1.80
2018-05-07T14:52:41.289Z,1.60
2018-05-07T14:55:07.162Z,2.30
2018-05-07T14:57:33.049Z,1.80
2018-05-07T14:59:58.909Z,1.70
2018-05-07T15:02:24.799Z,1.40
2018-05-07T15:04:50.725Z,1.70
2018-05-07T15:07:16.732Z,1.40
2018-05-07T15:09:42.614Z,2.00
2018-05-07T15:12:08.448Z,1.73
2018-05-07T15:14:34.428Z,2.00
2018-05-07T15:17:00.302Z,1.90
2018-05-07T15:19:26.169Z,2.53
2018-05-07T15:21:52.066Z,1.90
2018-05-07T15:24:17.970Z,1.80
2018-05-07T15:26:43.858Z,2.03
2018-05-07T15:29:09.811Z,1.70
2018-05-07T15:31:35.676Z,2.10
2018-05-07T15:34:01.550Z,1.90
2018-05-07T15:36:27.423Z,1.77
2018-05-07T15:38:53.328Z,1.43
2018-05-07T15:41:19.216Z,1.60
2018-05-07T15:43:45.119Z,1.57
2018-05-07T15:46:10.957Z,1.60
2018-05-07T15:48:36.844Z,1.47
2018-05-07T15:51:02.713Z,1.87
2018-05-07T15:53:28.586Z,1.90
2018-05-07T15:55:54.519Z,1.40
2018-05-07T15:58:20.379Z,1.67
2018-05-07T16:00:46.301Z,1.40
2018-05-07T16:03:12.255Z,2.00
2018-05-07T16:05:38.855Z,1.60
2018-05-07T16:08:04.727Z,1.40
2018-05-07T16:10:30.581Z,1.47
2018-05-07T16:12:56.447Z,1.83
2018-05-07T16:15:22.293Z,1.63
2018-05-07T16:17:48.174Z,1.97
2018-05-07T16:20:14.073Z,1.80
2018-05-07T16:22:39.914Z,1.83
2018-05-07T16:25:05.778Z,1.90
2018-05-07T16:27:31.668Z,2.47
2018-05-07T16:29:57.538Z,2.10
2018-05-07T16:32:23.419Z,2.20
2018-05-07T16:34:49.359Z,1.73
2018-05-07T16:37:15.286Z,1.80
2018-05-07T16:39:41.172Z,1.97
2018-05-07T16:42:07.151Z,1.80
2018-05-07T16:44:33.004Z,2.13
2018-05-07T16:46:58.857Z,1.87
2018-05-07T16:49:24.712Z,1.77
2018-05-07T16:51:50.582Z,1.90
2018-05-07T16:54:16.596Z,2.13
2018-05-07T16:56:42.357Z,1.40
2018-05-07T16:59:08.225Z,1.83
2018-05-07T17:01:34.108Z,1.80
2018-05-07T17:03:59.996Z,1.60
2018-05-07T17:06:25.889Z,1.53
2018-05-07T17:08:51.813Z,1.40
2018-05-07T17:11:17.712Z,1.97
2018-05-07T17:13:43.560Z,1.57
2018-05-07T17:16:09.448Z,1.87
2018-05-07T17:18:35.450Z,1.87
2018-05-07T17:21:01.316Z,2.00
2018-05-07T17:23:27.149Z,2.00
2018-05-07T17:25:53.032Z,1.70
2018-05-07T17:28:18.888Z,2.50
2018-05-07T17:30:44.750Z,2.23
2018-05-07T17:33:10.573Z,2.00
2018-05-07T17:35:36.409Z,1.87
2018-05-07T17:38:02.292Z,1.47
2018-05-07T17:40:28.149Z,2.17
2018-05-07T17:42:54.002Z,1.90
2018-05-07T17:45:32.030Z,1.50
2018-05-07T17:48:10.108Z,1.57
2018-05-07T17:50:35.932Z,1.50
2018-05-07T17:53:02.033Z,1.57
2018-05-07T17:55:27.855Z,1.70
2018-05-07T17:57:53.700Z,1.63
2018-05-07T18:00:19.624Z,1.70
2018-05-07T18:02:45.500Z,1.73
2018-05-07T18:05:11.362Z,2.10
2018-05-07T18:07:37.277Z,1.83
2018-05-07T18:10:03.416Z,2.30
2018-05-07T18:12:29.244Z,1.80
2018-05-07T18:14:55.072Z,2.37
2018-05-07T18:17:21.136Z,2.10
2018-05-07T18:19:46.825Z,1.77
2018-05-07T18:22:12.858Z,1.60
2018-05-07T18:24:38.685Z,1.83
2018-05-07T18:27:04.543Z,1.60
2018-05-07T18:29:30.394Z,1.83
2018-05-07T18:31:56.276Z,1.77
2018-05-07T18:34:22.169Z,1.67
2018-05-07T18:36:48.065Z,1.77
2018-05-07T18:39:13.926Z,2.03
2018-05-07T18:41:39.766Z,2.03
2018-05-07T18:44:05.634Z,1.93
2018-05-07T18:46:31.546Z,1.70
2018-05-07T18:49:04.430Z,1.83
2018-05-07T18:51:30.304Z,1.40
2018-05-07T18:53:56.193Z,1.83
2018-05-07T18:56:22.089Z,1.97
2018-05-07T18:58:47.947Z,1.97
2018-05-07T19:01:13.815Z,1.90
2018-05-07T19:03:39.656Z,1.93
2018-05-07T19:06:05.522Z,1.87
2018-05-07T19:08:31.394Z,1.90
2018-05-07T19:10:57.237Z,2.30
2018-05-07T19:13:23.110Z,2.10
2018-05-07T19:15:48.972Z,2.53
2018-05-07T19:18:14.914Z,2.67
2018-05-07T19:20:40.809Z,2.60
2018-05-07T19:23:06.713Z,4.00
2018-05-07T19:25:32.629Z,2.93
2018-05-07T19:27:58.477Z,3.57
2018-05-07T19:30:24.319Z,4.90
2018-05-07T19:32:50.248Z,4.63
2018-05-07T19:35:16.109Z,5.40
2018-05-07T19:37:41.947Z,7.03
2018-05-07T19:40:07.828Z,7.30
2018-05-07T19:42:33.705Z,7.80
2018-05-07T19:44:59.590Z,5.90
2018-05-07T19:47:25.453Z,3.40
2018-05-07T19:49:51.358Z,2.80
2018-05-07T19:52:17.227Z,2.57
2018-05-07T19:54:43.085Z,2.60
2018-05-07T19:57:08.989Z,2.23
2018-05-07T19:59:34.824Z,2.17
2018-05-07T20:02:00.686Z,2.33
2018-05-07T20:04:26.533Z,2.23
2018-05-07T20:06:52.389Z,2.80
2018-05-07T20:09:18.229Z,2.33
2018-05-07T20:11:44.076Z,2.10
2018-05-07T20:14:09.932Z,2.87
2018-05-07T20:16:35.808Z,2.83
2018-05-07T20:19:01.741Z,2.40
2018-05-07T20:21:27.587Z,2.30
2018-05-07T20:23:53.435Z,2.50
2018-05-07T20:26:19.308Z,2.70
2018-05-07T20:28:45.182Z,2.40
2018-05-07T20:31:11.064Z,3.60
2018-05-07T20:33:36.945Z,2.03
2018-05-07T20:36:02.856Z,2.70
2018-05-07T20:38:28.756Z,2.20
2018-05-07T20:40:54.624Z,2.40
2018-05-07T20:43:20.517Z,2.30
2018-05-07T20:45:46.380Z,2.90
2018-05-07T20:48:12.338Z,2.00
2018-05-07T20:50:38.160Z,2.17
2018-05-07T20:53:04.026Z,2.20
2018-05-07T20:55:29.879Z,2.90
2018-05-07T20:57:55.770Z,2.47
2018-05-07T21:00:21.625Z,3.40
2018-05-07T21:02:47.477Z,2.67
2018-05-07T21:05:13.364Z,2.07
2018-05-07T21:07:39.265Z,2.50
2018-05-07T21:10:05.149Z,2.60
2018-05-07T21:12:31.016Z,2.20
2018-05-07T21:14:56.882Z,1.90
2018-05-07T21:17:22.727Z,2.83
2018-05-07T21:19:48.611Z,1.97
2018-05-07T21:22:14.497Z,2.20
2018-05-07T21:24:40.366Z,2.77
2018-05-07T21:27:06.229Z,1.93
2018-05-07T21:29:32.096Z,2.33
2018-05-07T21:31:57.949Z,2.43
2018-05-07T21:34:23.809Z,2.10
2018-05-07T21:36:49.657Z,2.23
2018-05-07T21:39:15.520Z,1.83
2018-05-07T21:41:41.407Z,2.33
2018-05-07T21:44:07.220Z,2.43
2018-05-07T21:46:33.072Z,2.30
2018-05-07T21:48:58.902Z,2.43
2018-05-07T21:51:24.741Z,2.60
2018-05-07T21:53:50.616Z,2.93
2018-05-07T21:56:16.465Z,2.90
2018-05-07T21:58:42.317Z,2.57
2018-05-07T22:01:08.185Z,2.43
2018-05-07T22:03:34.050Z,2.90
2018-05-07T22:05:59.955Z,2.40
2018-05-07T22:08:25.849Z,3.07
2018-05-07T22:10:51.737Z,2.33
2018-05-07T22:13:17.601Z,2.70
2018-05-07T22:15:43.481Z,2.57
2018-05-07T22:18:09.326Z,2.57
2018-05-07T22:20:35.221Z,2.60
2018-05-07T22:23:01.102Z,2.50
2018-05-07T22:25:27.011Z,3.07
2018-05-07T22:27:52.890Z,2.27
2018-05-07T22:30:18.726Z,2.57
2018-05-07T22:32:44.569Z,2.30
2018-05-07T22:35:10.428Z,2.60
2018-05-07T22:37:36.238Z,2.80
2018-05-07T22:40:02.148Z,2.20
2018-05-07T22:42:28.204Z,2.70
2018-05-07T22:44:54.083Z,2.33
2018-05-07T22:47:19.933Z,2.50
2018-05-07T22:49:45.858Z,2.73
2018-05-07T22:52:11.690Z,2.10
2018-05-07T22:54:37.616Z,2.70
2018-05-07T22:57:03.462Z,3.10
2018-05-07T22:59:29.309Z,2.60
2018-05-07T23:01:55.163Z,2.80
2018-05-07T23:04:20.992Z,2.67
2018-05-07T23:06:46.875Z,2.50
2018-05-07T23:09:12.760Z,2.43
2018-05-07T23:11:38.636Z,2.57
2018-05-07T23:14:04.513Z,3.10
2018-05-07T23:16:30.396Z,2.57
2018-05-07T23:18:56.252Z,2.37
2018-05-07T23:21:22.124Z,2.70
2018-05-07T23:23:48.036Z,2.50
2018-05-07T23:26:13.896Z,3.13
2018-05-07T23:28:39.742Z,2.50
2018-05-07T23:31:05.577Z,2.70
2018-05-07T23:33:31.429Z,2.47
2018-05-07T23:35:57.285Z,2.53
2018-05-07T23:38:23.120Z,2.77
2018-05-07T23:40:49.022Z,2.80
2018-05-07T23:43:14.840Z,2.80
2018-05-07T23:45:40.724Z,2.80
2018-05-07T23:48:06.594Z,2.63
2018-05-07T23:50:32.439Z,2.40
2018-05-07T23:52:58.294Z,2.43
2018-05-07T23:55:24.169Z,2.50
2018-05-07T23:57:50.008Z,2.20
